Time;durP1;ratioP1;P1;durP2;ratioP2;P2;SDS_P1;SDS_P2;PMS_P1;PMS_P2;Temp;Humidity;BMP_temperature;BMP_pressure;BME280_temperature;BME280_humidity;BME280_pressure;Samples;Min_cycle;Max_cycle;Signal;HPM_P1;HPM_P2
2022/12/07 00:01:09;;;;;;;80.35;41.63;;;;;;;4.91;85.99;99619.66;5033897;28;20025;-64
2022/12/07 00:03:36;;;;;;;80.18;40.47;;;;;;;4.86;86.36;99636.34;5033819;28;20489;-64
2022/12/07 00:06:04;;;;;;;79.35;37.97;;;;;;;4.74;86.73;99626.47;5014891;28;20025;-64
2022/12/07 00:08:30;;;;;;;78.60;42.50;;;;;;;4.58;87.00;99625.78;5014324;28;20510;-64
2022/12/07 00:11:04;;;;;;;85.13;42.38;;;;;;;4.63;87.96;99620.22;5032684;28;20033;-64
2022/12/07 00:13:31;;;;;;;80.57;41.65;;;;;;;4.66;88.12;99623.50;5033842;28;20155;-64
2022/12/07 00:16:13;;;;;;;84.10;42.35;;;;;;;4.56;88.11;99622.47;5033565;28;20025;-65
2022/12/07 00:18:39;;;;;;;84.50;40.58;;;;;;;4.59;88.05;99621.91;5015932;28;20025;-65
2022/12/07 00:21:14;;;;;;;81.95;42.15;;;;;;;4.70;88.69;99627.34;5033585;28;20032;-64
2022/12/07 00:23:41;;;;;;;86.85;43.53;;;;;;;4.74;88.70;99628.44;5033696;28;20068;-64
2022/12/07 00:26:11;;;;;;;88.95;48.08;;;;;;;4.72;88.24;99630.66;5030236;28;20022;-64
2022/12/07 00:28:38;;;;;;;93.47;49.50;;;;;;;4.70;88.68;99630.09;5033244;28;20072;-65
2022/12/07 00:31:09;;;;;;;91.55;47.80;;;;;;;4.69;88.27;99636.78;5033392;28;20041;-64
2022/12/07 00:33:35;;;;;;;98.28;46.88;;;;;;;4.73;88.62;99635.09;5033369;28;20026;-64
2022/12/07 00:36:03;;;;;;;110.53;55.67;;;;;;;4.75;88.16;99632.84;5033188;28;20461;-64
2022/12/07 00:38:31;;;;;;;120.45;56.92;;;;;;;4.75;88.22;99622.56;5018066;28;20029;-64
2022/12/07 00:41:02;;;;;;;105.70;55.60;;;;;;;4.75;88.10;99624.53;5013305;28;20049;-64
2022/12/07 00:43:28;;;;;;;97.63;49.80;;;;;;;4.75;87.82;99635.63;5019909;28;20028;-65
2022/12/07 00:45:54;;;;;;;96.65;47.42;;;;;;;4.76;87.62;99624.22;5011760;28;20026;-65
2022/12/07 00:48:20;;;;;;;94.60;45.40;;;;;;;4.71;87.26;99615.16;5032529;28;20053;-64
2022/12/07 00:50:46;;;;;;;90.60;47.60;;;;;;;4.65;87.13;99628.25;5032957;28;20100;-64
2022/12/07 00:53:11;;;;;;;85.70;44.58;;;;;;;4.53;87.44;99616.72;5005370;28;20121;-64
2022/12/07 00:55:37;;;;;;;87.25;46.05;;;;;;;4.55;87.40;99617.25;5032960;28;20061;-64
2022/12/07 00:58:03;;;;;;;96.53;45.88;;;;;;;4.45;88.22;99620.91;5032897;28;20024;-65
2022/12/07 01:00:28;;;;;;;95.55;48.85;;;;;;;4.61;88.01;99611.38;5032458;28;20021;-66
2022/12/07 01:02:54;;;;;;;85.03;43.72;;;;;;;4.67;88.11;99622.38;5032167;28;20132;-64
2022/12/07 01:05:19;;;;;;;89.47;45.97;;;;;;;4.65;87.60;99614.38;5032764;28;20022;-64
2022/12/07 01:07:46;;;;;;;90.20;45.33;;;;;;;4.64;86.98;99610.78;5004376;28;20073;-64
2022/12/07 01:10:12;;;;;;;86.30;42.20;;;;;;;4.58;86.73;99614.69;5012691;28;20097;-64
2022/12/07 01:12:38;;;;;;;68.63;36.60;;;;;;;4.50;86.74;99612.56;5012879;28;20057;-64
2022/12/07 01:15:04;;;;;;;57.78;31.63;;;;;;;4.47;87.40;99597.34;5012649;28;20069;-63
2022/12/07 01:17:30;;;;;;;63.03;35.72;;;;;;;4.56;86.64;99608.63;5029897;28;20029;-64
2022/12/07 01:19:55;;;;;;;67.75;35.85;;;;;;;4.50;86.41;99602.31;5014677;28;20033;-64
2022/12/07 01:22:20;;;;;;;64.97;33.95;;;;;;;4.52;85.99;99599.25;5031000;28;20053;-64
2022/12/07 01:24:47;;;;;;;59.08;31.55;;;;;;;4.42;86.09;99593.81;5032439;28;20041;-64
2022/12/07 01:27:13;;;;;;;66.95;33.83;;;;;;;4.37;85.77;99589.13;5014552;28;20079;-64
2022/12/07 01:29:39;;;;;;;61.85;31.80;;;;;;;4.39;85.98;99583.31;5032613;28;20164;-64
2022/12/07 01:32:05;;;;;;;65.20;35.38;;;;;;;4.36;86.49;99576.41;5027194;28;20101;-64
2022/12/07 01:34:30;;;;;;;106.13;56.40;;;;;;;4.27;86.36;99573.44;5032174;28;20021;-64
2022/12/07 01:36:56;;;;;;;84.32;47.28;;;;;;;4.25;86.41;99581.22;5029618;28;20111;-65
2022/12/07 01:39:22;;;;;;;64.78;35.72;;;;;;;4.20;86.25;99582.09;5031452;28;20096;-66
2022/12/07 01:41:47;;;;;;;69.50;38.50;;;;;;;4.12;87.30;99577.16;5013919;28;20032;-63
2022/12/07 01:44:27;;;;;;;75.85;40.25;;;;;;;4.10;87.02;99564.72;5032658;28;20017;-64
2022/12/07 01:46:55;;;;;;;69.23;35.27;;;;;;;4.20;86.78;99578.47;5031901;28;20029;-64
2022/12/07 01:49:45;;;;;;;64.63;33.63;;;;;;;3.96;86.81;99570.91;5031953;28;20073;-64
2022/12/07 01:52:27;;;;;;;61.40;35.05;;;;;;;3.86;87.85;99568.22;5031812;28;20032;-64
2022/12/07 01:55:00;;;;;;;58.25;33.50;;;;;;;3.82;88.09;99579.06;5009945;28;20032;-63
2022/12/07 01:57:26;;;;;;;75.40;35.92;;;;;;;3.88;87.33;99569.59;5023646;28;20033;-64
2022/12/07 01:59:53;;;;;;;57.08;33.53;;;;;;;3.96;86.64;99581.16;5014115;28;20048;-64
2022/12/07 02:02:31;;;;;;;64.82;34.08;;;;;;;4.00;86.55;99569.25;5031558;28;20497;-63
2022/12/07 02:04:59;;;;;;;65.45;32.35;;;;;;;4.05;86.30;99571.94;5011113;28;20179;-64
2022/12/07 02:07:26;;;;;;;55.40;30.25;;;;;;;3.99;86.33;99562.06;5013847;28;20148;-64
2022/12/07 02:09:52;;;;;;;51.83;31.25;;;;;;;3.48;87.45;99552.16;5011560;28;20045;-64
2022/12/07 02:12:18;;;;;;;60.40;32.70;;;;;;;3.48;87.34;99561.25;5013773;28;20060;-63
2022/12/07 02:14:44;;;;;;;51.80;28.63;;;;;;;3.71;87.72;99561.69;5031555;28;20404;-65
2022/12/07 02:17:18;;;;;;;54.00;30.38;;;;;;;3.79;87.00;99551.94;5031251;28;20029;-64
2022/12/07 02:19:57;;;;;;;52.20;28.08;;;;;;;3.33;88.35;99553.06;5030672;28;20029;-64
2022/12/07 02:22:34;;;;;;;63.67;30.33;;;;;;;3.39;89.51;99560.22;5013522;28;20041;-64
2022/12/07 02:25:16;;;;;;;60.92;30.77;;;;;;;3.54;88.82;99552.94;5012851;28;20029;-63
2022/12/07 02:28:10;;;;;;;63.00;31.90;;;;;;;3.57;87.99;99544.06;5031366;28;20030;-64
2022/12/07 02:30:42;;;;;;;87.13;38.95;;;;;;;3.61;88.91;99542.38;5013334;28;20157;-64
2022/12/07 02:33:14;;;;;;;81.38;43.92;;;;;;;3.62;88.58;99535.72;5031102;28;20033;-64
2022/12/07 02:35:41;;;;;;;67.90;35.30;;;;;;;3.75;88.55;99548.94;5030901;28;20495;-64
2022/12/07 02:38:22;;;;;;;59.72;31.33;;;;;;;3.76;87.78;99539.53;5030135;28;20437;-64
2022/12/07 02:40:54;;;;;;;62.58;30.67;;;;;;;3.84;87.94;99537.25;5031070;28;20025;-63
2022/12/07 02:43:26;;;;;;;57.08;28.45;;;;;;;3.76;88.50;99544.22;5012953;28;20084;-64
2022/12/07 02:45:55;;;;;;;50.35;28.52;;;;;;;3.30;89.58;99539.81;5031051;28;20447;-63
2022/12/07 02:48:21;;;;;;;55.92;27.98;;;;;;;3.50;90.18;99534.16;5013174;28;20560;-64
2022/12/07 02:50:52;;;;;;;51.05;26.75;;;;;;;3.56;89.18;99531.34;5031049;28;20485;-64
2022/12/07 02:53:41;;;;;;;44.72;25.48;;;;;;;3.58;88.25;99509.75;5029720;28;20033;-64
2022/12/07 02:56:34;;;;;;;41.80;23.27;;;;;;;3.54;88.21;99537.16;5013187;28;20496;-63
2022/12/07 02:59:33;;;;;;;48.95;27.67;;;;;;;3.68;88.22;99537.34;5031017;28;20036;-64
2022/12/07 03:02:20;;;;;;;49.10;26.58;;;;;;;3.71;87.34;99534.00;5030948;28;20053;-63
2022/12/07 03:04:48;;;;;;;50.47;26.13;;;;;;;3.35;87.30;99539.78;5013290;28;20025;-65
2022/12/07 03:07:38;;;;;;;40.83;23.17;;;;;;;2.37;93.69;99541.78;5029763;28;20033;-65
2022/12/07 03:10:20;;;;;;;53.00;26.42;;;;;;;2.23;96.61;99540.69;5012962;28;20029;-65
2022/12/07 03:12:53;;;;;;;71.60;36.15;;;;;;;2.37;97.44;99535.44;5030754;28;20049;-64
2022/12/07 03:15:25;;;;;;;78.35;41.45;;;;;;;2.74;96.03;99536.16;5013235;28;20025;-63
2022/12/07 03:17:54;;;;;;;85.78;46.40;;;;;;;2.65;95.58;99536.75;5030655;28;20021;-64
2022/12/07 03:20:23;;;;;;;74.90;41.53;;;;;;;3.01;94.82;99538.56;5030898;28;20519;-63
2022/12/07 03:22:50;;;;;;;67.85;34.70;;;;;;;3.11;93.73;99526.63;5011671;28;20026;-64
2022/12/07 03:25:17;;;;;;;60.10;32.45;;;;;;;3.28;92.69;99530.97;5030575;28;20444;-64
2022/12/07 03:27:51;;;;;;;57.35;31.77;;;;;;;3.43;91.88;99539.19;5030617;28;20345;-63
2022/12/07 03:30:20;;;;;;;69.75;35.45;;;;;;;3.49;91.24;99532.50;5030692;28;20460;-66
2022/12/07 03:32:49;;;;;;;66.55;33.30;;;;;;;3.47;91.21;99534.72;5015769;28;20030;-64
2022/12/07 03:35:25;;;;;;;69.63;31.92;;;;;;;3.32;91.33;99532.06;5034514;28;20025;-64
2022/12/07 03:37:56;;;;;;;72.35;33.92;;;;;;;3.22;91.51;99530.19;5033585;28;20037;-63
2022/12/07 03:40:39;;;;;;;69.65;36.28;;;;;;;3.28;92.20;99528.22;5016143;28;20044;-63
2022/12/07 03:43:05;;;;;;;73.50;35.28;;;;;;;3.37;91.89;99532.00;5033948;28;20432;-64
2022/12/07 03:45:39;;;;;;;71.82;33.88;;;;;;;3.47;91.82;99528.38;5034088;28;20057;-63
2022/12/07 03:48:15;;;;;;;71.75;33.17;;;;;;;3.42;92.38;99537.53;5034051;28;20116;-63
2022/12/07 03:50:55;;;;;;;65.93;32.63;;;;;;;3.54;91.61;99528.88;5015243;28;20087;-64
2022/12/07 03:53:43;;;;;;;65.72;34.10;;;;;;;3.53;91.84;99534.69;5016279;28;20029;-64
2022/12/07 03:56:10;;;;;;;69.55;38.30;;;;;;;3.46;91.74;99533.06;5016178;28;20056;-63
2022/12/07 03:58:37;;;;;;;70.47;39.13;;;;;;;3.53;90.57;99521.69;5016029;28;20049;-63
2022/12/07 04:01:03;;;;;;;86.97;37.78;;;;;;;3.59;90.53;99519.72;5033976;28;20030;-64
2022/12/07 04:03:28;;;;;;;61.67;33.10;;;;;;;3.35;89.89;99526.78;5033849;28;20025;-63
2022/12/07 04:05:54;;;;;;;63.15;33.15;;;;;;;3.42;91.13;99526.47;5030415;28;20492;-63
2022/12/07 04:08:20;;;;;;;72.22;35.22;;;;;;;3.44;90.96;99518.69;5033740;28;20484;-64
2022/12/07 04:10:46;;;;;;;57.35;31.08;;;;;;;3.33;90.28;99522.63;5033797;28;20032;-64
2022/12/07 04:13:12;;;;;;;55.47;30.65;;;;;;;3.29;90.95;99516.03;5015678;28;20411;-64
2022/12/07 04:15:37;;;;;;;54.92;30.20;;;;;;;3.36;91.20;99511.84;5033638;28;20389;-64
2022/12/07 04:18:02;;;;;;;54.90;31.92;;;;;;;2.89;91.18;99508.47;5033564;28;20041;-63
2022/12/07 04:20:28;;;;;;;60.70;30.10;;;;;;;3.14;91.54;99511.41;5032446;28;20037;-64
2022/12/07 04:22:53;;;;;;;61.00;31.85;;;;;;;3.20;90.77;99508.34;5033568;28;20077;-65
2022/12/07 04:25:19;;;;;;;59.65;31.08;;;;;;;3.29;90.68;99499.44;5033583;28;20048;-64
2022/12/07 04:27:44;;;;;;;58.67;30.00;;;;;;;3.41;90.15;99499.09;5015509;28;20084;-63
2022/12/07 04:30:10;;;;;;;55.30;30.33;;;;;;;3.40;89.97;99512.09;5033454;28;20034;-64
2022/12/07 04:32:36;;;;;;;61.13;32.80;;;;;;;3.46;89.83;99505.41;5033260;28;20533;-65
2022/12/07 04:35:03;;;;;;;59.67;31.80;;;;;;;3.47;89.38;99504.28;5031135;28;20029;-65
2022/12/07 04:37:28;;;;;;;68.40;33.92;;;;;;;3.45;89.49;99498.22;5015496;28;20100;-63
2022/12/07 04:39:54;;;;;;;58.88;31.20;;;;;;;3.38;89.41;99508.81;5031989;28;20022;-64
2022/12/07 04:42:19;;;;;;;59.25;31.02;;;;;;;3.31;89.25;99505.50;5033136;28;20401;-64
2022/12/07 04:44:45;;;;;;;63.40;32.35;;;;;;;3.36;89.43;99517.38;5031354;28;20393;-64
2022/12/07 04:47:10;;;;;;;59.63;29.25;;;;;;;3.02;89.27;99511.75;5015362;28;20495;-63
2022/12/07 04:49:36;;;;;;;55.45;31.13;;;;;;;3.10;89.68;99513.91;5031955;28;20075;-64
2022/12/07 04:52:02;;;;;;;61.22;32.90;;;;;;;3.17;89.49;99508.91;5036681;28;20151;-63
2022/12/07 04:54:27;;;;;;;68.88;35.33;;;;;;;3.23;89.52;99499.47;5041780;28;20499;-64
2022/12/07 04:56:52;;;;;;;63.00;35.30;;;;;;;3.29;89.20;99502.22;5044115;28;20032;-64
2022/12/07 04:59:18;;;;;;;74.63;38.40;;;;;;;3.23;89.51;99510.53;5015021;28;20477;-64
2022/12/07 05:01:43;;;;;;;63.28;33.45;;;;;;;3.20;89.86;99518.59;5015197;28;20025;-63
2022/12/07 05:04:09;;;;;;;76.45;36.80;;;;;;;3.28;89.53;99515.19;5015125;28;20083;-63
2022/12/07 05:06:35;;;;;;;75.20;40.03;;;;;;;3.32;89.91;99505.25;5015099;28;20063;-64
2022/12/07 05:09:01;;;;;;;79.10;45.08;;;;;;;3.29;90.28;99511.31;5032430;28;20057;-65
2022/12/07 05:11:38;;;;;;;72.15;39.35;;;;;;;3.23;91.02;99513.28;5031462;28;20021;-64
2022/12/07 05:14:11;;;;;;;90.20;44.65;;;;;;;3.31;91.66;99514.63;5014854;28;20025;-63
2022/12/07 05:16:37;;;;;;;109.22;55.60;;;;;;;3.32;91.65;99526.53;5030212;28;20112;-64
2022/12/07 05:19:07;;;;;;;101.90;47.10;;;;;;;3.25;92.67;99518.53;5029723;28;20412;-64
2022/12/07 05:21:32;;;;;;;91.43;40.97;;;;;;;3.18;93.41;99516.09;5043972;28;20027;-64
2022/12/07 05:23:58;;;;;;;87.18;40.65;;;;;;;3.07;93.14;99515.28;5032262;28;20037;-64
2022/12/07 05:26:23;;;;;;;83.88;42.75;;;;;;;3.08;93.46;99516.97;5028724;28;20045;-64
2022/12/07 05:28:53;;;;;;;78.40;42.92;;;;;;;3.28;93.07;99519.91;5031284;28;20025;-63
2022/12/07 05:31:19;;;;;;;84.10;45.67;;;;;;;3.30;93.09;99526.78;5014936;28;20087;-63
2022/12/07 05:33:44;;;;;;;92.00;45.40;;;;;;;3.40;92.72;99525.09;5012829;28;20451;-65
2022/12/07 05:36:10;;;;;;;75.85;41.63;;;;;;;3.43;92.75;99524.50;5029649;28;20036;-64
2022/12/07 05:38:35;;;;;;;82.32;43.88;;;;;;;3.43;92.47;99521.75;5023048;28;20029;-65
2022/12/07 05:41:03;;;;;;;99.07;46.13;;;;;;;3.47;92.13;99528.38;5031660;28;20026;-64
2022/12/07 05:43:29;;;;;;;77.50;40.90;;;;;;;3.50;91.10;99527.78;5026745;28;20515;-64
2022/12/07 05:45:54;;;;;;;65.68;35.45;;;;;;;3.51;90.94;99526.69;5008869;28;20037;-67
2022/12/07 05:48:20;;;;;;;62.28;35.42;;;;;;;3.51;90.61;99535.81;5011490;28;20432;-63
2022/12/07 05:50:48;;;;;;;66.97;35.10;;;;;;;3.22;91.50;99536.50;5028189;28;20420;-65
2022/12/07 05:53:14;;;;;;;68.72;34.28;;;;;;;3.31;92.25;99539.50;5010101;28;20044;-66
2022/12/07 05:55:39;;;;;;;61.28;34.72;;;;;;;3.39;91.80;99540.88;5008613;28;20042;-65
2022/12/07 06:00:49;;;;;;;67.28;35.25;;;;;;;3.18;91.82;99542.91;5029016;28;20125;-65
2022/12/07 06:03:15;;;;;;;88.30;37.90;;;;;;;3.23;92.08;99551.19;5003109;28;20116;-64
2022/12/07 06:05:40;;;;;;;72.18;38.50;;;;;;;3.27;91.92;99540.38;5028754;28;20033;-65
2022/12/07 06:08:05;;;;;;;80.07;41.88;;;;;;;3.27;92.07;99552.25;5028703;28;20029;-66
2022/12/07 06:10:31;;;;;;;79.43;41.47;;;;;;;2.94;93.43;99546.31;5023502;28;20566;-67
2022/12/07 06:12:56;;;;;;;88.55;45.53;;;;;;;2.42;96.67;99549.22;5027646;28;20440;-66
2022/12/07 06:15:22;;;;;;;118.70;51.97;;;;;;;2.43;99.12;99555.59;5011121;28;20035;-65
2022/12/07 06:17:48;;;;;;;122.43;60.85;;;;;;;2.27;100.00;99539.03;5004856;28;20112;-65
2022/12/07 06:20:14;;;;;;;106.78;54.83;;;;;;;2.27;100.00;99540.97;5009492;28;20188;-65
2022/12/07 06:22:40;;;;;;;112.78;53.03;;;;;;;2.10;100.00;99542.06;5019685;28;20116;-66
2022/12/07 06:25:07;;;;;;;125.85;59.55;;;;;;;2.27;100.00;99538.22;5028466;28;20096;-66
2022/12/07 06:27:32;;;;;;;125.43;61.08;;;;;;;2.34;100.00;99538.72;5024610;28;20075;-65
2022/12/07 06:29:58;;;;;;;150.55;72.45;;;;;;;2.33;100.00;99524.13;5009447;28;20041;-64
2022/12/07 06:32:24;;;;;;;160.38;74.53;;;;;;;2.55;100.00;99534.03;5008377;28;20041;-64
2022/12/07 06:34:50;;;;;;;153.73;77.60;;;;;;;2.84;99.21;99541.66;5010954;28;20044;-64
2022/12/07 06:37:15;;;;;;;176.15;83.38;;;;;;;2.93;99.09;99537.22;5027029;28;20041;-67
2022/12/07 06:39:41;;;;;;;176.32;84.20;;;;;;;3.02;98.72;99542.16;5005571;28;20493;-67
2022/12/07 06:42:06;;;;;;;137.50;76.45;;;;;;;3.18;97.99;99538.19;5027343;28;20029;-66
2022/12/07 06:44:32;;;;;;;139.07;73.18;;;;;;;3.23;97.25;99535.41;5007885;28;20481;-68
2022/12/07 06:46:58;;;;;;;157.73;83.88;;;;;;;3.13;97.75;99540.97;5003768;28;20134;-65
2022/12/07 06:49:23;;;;;;;147.25;78.95;;;;;;;3.41;96.89;99538.63;5027306;28;20140;-66
2022/12/07 06:51:49;;;;;;;148.80;76.00;;;;;;;3.62;96.31;99527.44;5027845;28;20029;-64
2022/12/07 06:54:15;;;;;;;164.57;82.28;;;;;;;3.82;95.26;99540.31;5009396;28;20550;-65
2022/12/07 06:56:40;;;;;;;147.50;77.68;;;;;;;3.86;94.97;99546.91;5027610;28;20044;-64
2022/12/07 06:59:07;;;;;;;148.25;72.03;;;;;;;3.69;95.11;99546.50;5019462;28;20033;-67
2022/12/07 07:01:34;;;;;;;155.57;83.10;;;;;;;3.80;96.20;99536.97;5019999;28;20048;-65
2022/12/07 07:03:59;;;;;;;146.18;82.65;;;;;;;3.96;95.51;99537.69;5020694;28;20033;-65
2022/12/07 07:06:25;;;;;;;150.48;86.65;;;;;;;4.09;95.46;99536.22;5020916;28;20030;-69
2022/12/07 07:08:51;;;;;;;158.93;87.47;;;;;;;4.33;94.49;99532.69;5010246;28;20159;-67
2022/12/07 07:11:16;;;;;;;168.82;93.95;;;;;;;4.49;94.25;99533.38;5011418;28;20034;-65
2022/12/07 07:13:42;;;;;;;119.53;66.25;;;;;;;4.58;93.59;99534.34;5012596;28;20474;-67
2022/12/07 07:16:08;;;;;;;104.57;59.85;;;;;;;4.62;92.78;99529.06;5001351;28;20689;-68
2022/12/07 07:18:34;;;;;;;137.02;72.70;;;;;;;4.70;92.33;99536.72;5005004;28;23108;-67
2022/12/07 07:21:00;;;;;;;170.60;88.07;;;;;;;4.80;91.97;99541.31;5019268;28;20033;-65
2022/12/07 07:23:26;;;;;;;146.20;81.38;;;;;;;4.88;91.70;99548.16;5005049;28;20033;-66
2022/12/07 07:25:51;;;;;;;174.40;88.45;;;;;;;4.97;91.08;99545.59;5017333;28;20627;-68
2022/12/07 07:28:17;;;;;;;157.77;86.68;;;;;;;5.02;91.13;99549.13;5008538;28;20036;-70
2022/12/07 07:30:42;;;;;;;150.43;77.72;;;;;;;5.08;91.15;99549.06;5012819;28;20041;-67
2022/12/07 07:33:10;;;;;;;143.98;75.38;;;;;;;5.16;91.59;99549.22;5011792;28;20120;-65
2022/12/07 07:35:35;;;;;;;137.75;75.85;;;;;;;5.30;91.01;99542.94;5022760;28;20099;-68
2022/12/07 07:38:01;;;;;;;122.38;65.38;;;;;;;5.42;91.19;99548.88;5014300;28;20045;-65
2022/12/07 07:40:29;;;;;;;106.82;61.20;;;;;;;5.53;90.86;99554.28;5032177;28;20052;-68
2022/12/07 07:42:55;;;;;;;107.28;55.17;;;;;;;5.04;91.56;99557.13;5012552;28;20093;-66
2022/12/07 07:45:22;;;;;;;114.57;57.75;;;;;;;4.62;94.90;99552.06;5009035;28;20108;-64
2022/12/07 07:47:48;;;;;;;90.22;46.20;;;;;;;4.97;94.82;99545.59;5021713;28;20073;-68
2022/12/07 07:50:14;;;;;;;94.75;50.35;;;;;;;5.26;93.88;99536.34;5027418;28;20033;-67
2022/12/07 07:52:39;;;;;;;98.15;50.92;;;;;;;5.40;92.88;99542.78;5012369;28;20029;-67
2022/12/07 07:55:07;;;;;;;93.90;41.15;;;;;;;5.62;92.15;99550.56;5027909;28;20116;-68
2022/12/07 07:57:32;;;;;;;67.95;35.88;;;;;;;5.81;91.70;99555.25;5028836;28;20087;-69
2022/12/07 07:59:58;;;;;;;84.35;42.72;;;;;;;5.86;90.92;99554.34;5012907;28;20026;-67
2022/12/07 08:02:23;;;;;;;83.93;42.60;;;;;;;6.02;90.71;99557.75;5032007;28;20487;-67
2022/12/07 08:04:49;;;;;;;86.25;39.05;;;;;;;6.17;90.74;99559.47;5014173;28;20463;-66
2022/12/07 08:07:15;;;;;;;75.78;39.88;;;;;;;6.12;90.74;99553.97;5031560;28;20025;-67
2022/12/07 08:09:41;;;;;;;79.28;41.60;;;;;;;6.27;90.98;99552.91;5030209;28;20041;-66
2022/12/07 08:12:07;;;;;;;80.90;41.08;;;;;;;6.10;91.04;99550.69;5031012;28;20108;-64
2022/12/07 08:14:34;;;;;;;60.95;33.35;;;;;;;6.09;90.90;99544.28;5010080;28;20033;-67
2022/12/07 08:17:00;;;;;;;78.45;39.70;;;;;;;6.48;90.59;99553.34;5030088;28;20029;-73
2022/12/07 08:19:25;;;;;;;67.32;32.28;;;;;;;6.59;90.62;99557.59;5011815;28;20036;-70
2022/12/07 08:21:51;;;;;;;69.40;32.47;;;;;;;6.03;93.01;99553.84;5007653;28;20029;-69
2022/12/07 08:24:16;;;;;;;62.35;31.77;;;;;;;6.40;93.04;99551.31;5016575;28;20040;-69
2022/12/07 08:26:42;;;;;;;65.90;32.22;;;;;;;6.87;92.33;99546.50;5027104;28;20017;-71
2022/12/07 08:29:08;;;;;;;65.63;32.83;;;;;;;6.90;90.56;99550.63;5025266;28;20094;-69
2022/12/07 08:31:34;;;;;;;57.78;28.33;;;;;;;6.87;89.29;99548.47;5029085;28;20026;-73
2022/12/07 08:33:59;;;;;;;52.10;25.48;;;;;;;6.64;89.66;99547.53;5010981;28;20040;-73
2022/12/07 08:36:25;;;;;;;46.70;25.92;;;;;;;6.84;89.55;99541.56;5010261;28;20033;-73
2022/12/07 08:38:50;;;;;;;52.10;25.75;;;;;;;6.82;90.88;99546.59;5019183;28;20060;-70
2022/12/07 08:41:16;;;;;;;51.38;25.42;;;;;;;6.91;91.55;99543.13;5006632;28;20391;-72
2022/12/07 08:43:42;;;;;;;45.78;24.70;;;;;;;7.32;89.14;99545.03;5010864;28;20372;-74
2022/12/07 08:46:10;;;;;;;56.13;26.48;;;;;;;7.58;87.49;99547.25;5012598;28;20033;-76
2022/12/07 08:48:40;;;;;;;67.53;29.52;;;;;;;7.05;89.07;99537.53;5015433;28;20545;-70
2022/12/07 08:51:06;;;;;;;75.70;30.90;;;;;;;6.98;90.99;99529.63;5008772;28;20070;-69
2022/12/07 08:53:34;;;;;;;51.22;27.92;;;;;;;7.45;91.10;99529.47;5008525;28;20046;-70
2022/12/07 08:55:59;;;;;;;46.97;27.85;;;;;;;7.70;87.68;99522.47;4995860;28;20032;-70
2022/12/07 08:58:25;;;;;;;48.75;28.67;;;;;;;8.03;85.50;99515.03;4988213;28;20033;-73
2022/12/07 09:00:50;;;;;;;50.38;28.27;;;;;;;7.87;84.71;99523.78;5009573;28;20048;-70
2022/12/07 09:03:16;;;;;;;52.22;28.40;;;;;;;7.44;86.95;99506.38;4982853;28;20053;-71
2022/12/07 09:05:41;;;;;;;50.75;28.02;;;;;;;7.81;86.49;99516.66;5001637;28;20040;-72
2022/12/07 09:08:08;;;;;;;53.55;27.85;;;;;;;8.22;84.46;99512.03;4991711;28;20114;-74
2022/12/07 09:10:33;;;;;;;48.03;24.30;;;;;;;8.59;81.96;99504.41;4995433;28;20053;-70
2022/12/07 09:13:00;;;;;;;47.60;25.75;;;;;;;8.60;81.00;99494.91;5011611;28;20057;-72
2022/12/07 09:15:29;;;;;;;54.25;26.15;;;;;;;8.89;81.12;99484.34;4993812;28;20069;-71
2022/12/07 09:17:55;;;;;;;49.90;25.90;;;;;;;9.03;80.06;99490.63;4993071;28;20041;-70
2022/12/07 09:20:21;;;;;;;50.42;25.98;;;;;;;9.04;80.63;99485.88;5008683;28;20120;-70
2022/12/07 09:22:47;;;;;;;47.17;24.63;;;;;;;9.09;78.77;99488.50;5010558;28;20030;-70
2022/12/07 09:25:12;;;;;;;48.50;27.48;;;;;;;8.64;81.00;99481.97;5011288;28;20033;-70
2022/12/07 09:27:38;;;;;;;47.13;27.13;;;;;;;8.83;80.65;99473.34;4988746;28;20481;-70
2022/12/07 09:30:05;;;;;;;55.70;27.65;;;;;;;8.91;81.07;99471.72;5003555;28;20391;-70
2022/12/07 09:32:30;;;;;;;56.72;27.13;;;;;;;8.96;81.35;99476.34;5011077;28;20448;-71
2022/12/07 09:34:56;;;;;;;53.92;26.98;;;;;;;9.00;81.10;99463.38;4993147;28;20033;-69
2022/12/07 09:37:22;;;;;;;54.92;28.98;;;;;;;9.24;79.87;99459.31;5011023;28;20128;-69
2022/12/07 09:39:47;;;;;;;55.85;27.10;;;;;;;8.49;81.20;99455.31;5011373;28;20034;-69
2022/12/07 09:42:35;;;;;;;49.47;26.33;;;;;;;8.93;80.05;99460.22;4993342;28;20025;-71
2022/12/07 09:45:01;;;;;;;49.83;26.88;;;;;;;9.23;79.27;99449.28;4991715;28;20038;-72
2022/12/07 09:47:29;;;;;;;46.67;25.67;;;;;;;9.19;78.96;99449.13;5005140;28;20042;-71
2022/12/07 09:50:07;;;;;;;46.40;25.30;;;;;;;8.93;78.61;99449.06;5010336;28;20543;-71
2022/12/07 09:52:32;;;;;;;55.90;31.67;;;;;;;9.32;78.36;99436.19;5011519;28;20514;-72
2022/12/07 09:54:58;;;;;;;44.65;24.52;;;;;;;9.18;76.53;99443.88;4995057;28;20185;-70
2022/12/07 09:57:31;;;;;;;53.05;24.65;;;;;;;9.11;78.18;99442.38;5000323;28;20647;-71
2022/12/07 10:00:04;;;;;;;43.90;25.15;;;;;;;9.33;76.77;99437.81;5011946;28;20029;-71
2022/12/07 10:02:41;;;;;;;76.20;41.72;;;;;;;9.48;77.13;99436.50;5054439;27;20657;-75
2022/12/07 10:05:13;;;;;;;40.35;24.33;;;;;;;9.32;78.28;99433.38;5052162;28;20032;-70
2022/12/07 10:07:39;;;;;;;45.47;24.38;;;;;;;9.16;79.31;99430.25;5049429;28;20040;-70
2022/12/07 10:10:14;;;;;;;43.95;23.77;;;;;;;9.21;79.49;99429.28;5061132;28;20098;-70
2022/12/07 10:12:58;;;;;;;42.35;25.13;;;;;;;9.47;77.39;99425.66;5050405;28;20080;-72
2022/12/07 10:15:40;;;;;;;40.42;23.08;;;;;;;9.23;76.24;99422.22;5043273;28;20029;-70
2022/12/07 10:18:17;;;;;;;33.47;19.73;;;;;;;8.91;75.74;99424.31;5045627;28;20041;-70
2022/12/07 10:20:45;;;;;;;47.42;29.63;;;;;;;9.30;75.78;99418.09;5042743;28;20048;-71
2022/12/07 10:23:17;;;;;;;51.25;24.20;;;;;;;9.54;75.75;99415.63;5056798;28;20076;-70
2022/12/07 10:25:43;;;;;;;47.30;23.80;;;;;;;9.80;76.10;99417.56;5043831;28;20033;-71
2022/12/07 10:28:16;;;;;;;43.20;22.02;;;;;;;9.98;74.68;99412.78;5045514;28;20051;-71
2022/12/07 10:30:52;;;;;;;36.60;21.35;;;;;;;9.63;74.32;99414.81;5047768;28;20033;-71
2022/12/07 10:33:46;;;;;;;47.10;23.92;;;;;;;9.77;73.79;99411.81;5036140;28;20037;-71
2022/12/07 10:36:18;;;;;;;51.00;27.02;;;;;;;10.15;73.80;99411.09;5067505;28;20025;-71
2022/12/07 10:38:46;;;;;;;77.20;38.13;;;;;;;10.40;74.45;99409.34;5067602;28;20116;-71
2022/12/07 10:41:12;;;;;;;54.40;28.60;;;;;;;10.70;73.04;99413.38;5051955;28;20472;-71
2022/12/07 10:43:47;;;;;;;48.88;27.45;;;;;;;10.92;70.11;99415.03;5046036;28;20029;-71
2022/12/07 10:46:47;;;;;;;54.97;27.33;;;;;;;11.00;69.19;99410.53;5045407;28;20017;-72
2022/12/07 10:49:27;;;;;;;49.33;26.67;;;;;;;11.02;69.03;99417.44;5043700;28;20047;-72
2022/12/07 10:52:31;;;;;;;50.10;27.48;;;;;;;10.83;69.98;99406.72;5039162;28;20052;-70
2022/12/07 10:55:17;;;;;;;56.75;27.38;;;;;;;10.67;70.71;99415.66;5040098;28;20064;-69
2022/12/07 10:58:05;;;;;;;46.25;26.80;;;;;;;10.43;70.34;99404.28;5047293;28;20143;-69
2022/12/07 11:00:59;;;;;;;49.80;26.38;;;;;;;10.53;69.83;99404.72;5039703;28;20516;-68
2022/12/07 11:03:40;;;;;;;50.92;27.13;;;;;;;10.53;70.69;99407.53;5042592;28;20095;-70
2022/12/07 11:06:38;;;;;;;57.20;27.63;;;;;;;10.39;70.32;99402.13;5060775;28;20025;-66
2022/12/07 11:09:37;;;;;;;54.50;25.63;;;;;;;10.30;71.27;99400.53;5042335;28;20088;-69
2022/12/07 11:12:47;;;;;;;50.28;26.40;;;;;;;10.11;71.40;99391.38;5055169;28;20408;-68
2022/12/07 11:15:24;;;;;;;;;;;;;;;10.16;71.19;99401.56;5040426;28;20037;-69
2022/12/07 11:18:00;;;;;;;48.17;27.13;;;;;;;10.06;71.22;99388.75;5032898;28;19970;-71
2022/12/07 11:20:36;;;;;;;63.95;27.95;;;;;;;9.94;71.34;99389.47;5009052;28;20088;-67
2022/12/07 11:23:21;;;;;;;56.75;29.75;;;;;;;10.12;71.30;99378.22;5035670;28;20027;-68
2022/12/07 11:26:01;;;;;;;61.28;33.67;;;;;;;9.90;70.93;99382.91;5036535;28;20417;-72
2022/12/07 11:28:41;;;;;;;46.45;26.25;;;;;;;9.78;71.63;99377.19;5034608;28;20408;-71
2022/12/07 11:31:19;;;;;;;76.15;39.97;;;;;;;10.14;70.67;99370.34;5030908;28;20036;-67
2022/12/07 11:34:12;;;;;;;43.30;23.08;;;;;;;10.33;69.69;99369.09;5025319;28;20048;-68
2022/12/07 11:36:43;;;;;;;40.80;21.00;;;;;;;10.32;69.24;99364.66;5010806;28;20042;-72
2022/12/07 11:39:46;;;;;;;40.38;21.42;;;;;;;10.27;69.57;99359.28;5031098;28;20309;-69